sensor_id;sensor_type;location;lat;lon;timestamp;P1;durP1;ratioP1;P2;durP2;ratioP2
64633;SDS011;51043;52.406;9.690;2024-03-02T00:01:52;10.97;;;9.83;;
64633;SDS011;51043;52.406;9.690;2024-03-02T00:04:24;12.63;;;10.43;;
64633;SDS011;51043;52.406;9.690;2024-03-02T00:06:52;12.30;;;10.30;;
64633;SDS011;51043;52.406;9.690;2024-03-02T00:09:27;12.23;;;9.70;;
64633;SDS011;51043;52.406;9.690;2024-03-02T00:11:56;11.97;;;10.27;;
64633;SDS011;51043;52.406;9.690;2024-03-02T00:14:24;11.57;;;10.13;;
64633;SDS011;51043;52.406;9.690;2024-03-02T00:16:54;13.63;;;9.70;;
64633;SDS011;51043;52.406;9.690;2024-03-02T00:19:25;12.70;;;10.10;;
64633;SDS011;51043;52.406;9.690;2024-03-02T00:21:53;12.83;;;10.40;;
64633;SDS011;51043;52.406;9.690;2024-03-02T00:24:24;11.23;;;9.60;;
64633;SDS011;51043;52.406;9.690;2024-03-02T00:27:00;11.17;;;9.93;;
64633;SDS011;51043;52.406;9.690;2024-03-02T00:29:31;12.93;;;10.13;;
64633;SDS011;51043;52.406;9.690;2024-03-02T00:31:59;12.00;;;10.17;;
64633;SDS011;51043;52.406;9.690;2024-03-02T00:34:32;12.53;;;10.63;;
64633;SDS011;51043;52.406;9.690;2024-03-02T00:37:00;13.00;;;10.33;;
64633;SDS011;51043;52.406;9.690;2024-03-02T00:39:29;11.83;;;10.43;;
64633;SDS011;51043;52.406;9.690;2024-03-02T00:41:58;11.70;;;10.50;;
64633;SDS011;51043;52.406;9.690;2024-03-02T00:44:27;11.97;;;10.37;;
64633;SDS011;51043;52.406;9.690;2024-03-02T00:46:57;13.43;;;10.40;;
64633;SDS011;51043;52.406;9.690;2024-03-02T00:49:27;12.50;;;10.70;;
64633;SDS011;51043;52.406;9.690;2024-03-02T00:51:56;13.93;;;11.07;;
64633;SDS011;51043;52.406;9.690;2024-03-02T00:54:25;13.87;;;11.27;;
64633;SDS011;51043;52.406;9.690;2024-03-02T00:56:55;14.63;;;12.37;;
64633;SDS011;51043;52.406;9.690;2024-03-02T00:59:25;16.10;;;11.80;;
64633;SDS011;51043;52.406;9.690;2024-03-02T01:01:53;14.47;;;11.93;;
64633;SDS011;51043;52.406;9.690;2024-03-02T01:04:24;15.17;;;12.57;;
64633;SDS011;51043;52.406;9.690;2024-03-02T01:06:52;16.17;;;12.07;;
64633;SDS011;51043;52.406;9.690;2024-03-02T01:09:23;17.07;;;11.87;;
64633;SDS011;51043;52.406;9.690;2024-03-02T01:11:51;15.70;;;13.17;;
64633;SDS011;51043;52.406;9.690;2024-03-02T01:14:20;13.87;;;11.70;;
64633;SDS011;51043;52.406;9.690;2024-03-02T01:16:50;15.83;;;12.57;;
64633;SDS011;51043;52.406;9.690;2024-03-02T01:19:19;16.83;;;12.20;;
64633;SDS011;51043;52.406;9.690;2024-03-02T01:21:47;15.20;;;12.43;;
64633;SDS011;51043;52.406;9.690;2024-03-02T01:24:16;14.93;;;11.97;;
64633;SDS011;51043;52.406;9.690;2024-03-02T01:26:44;22.60;;;12.00;;
64633;SDS011;51043;52.406;9.690;2024-03-02T01:29:13;15.63;;;12.00;;
64633;SDS011;51043;52.406;9.690;2024-03-02T01:31:41;17.27;;;13.30;;
64633;SDS011;51043;52.406;9.690;2024-03-02T01:34:10;17.57;;;13.20;;
64633;SDS011;51043;52.406;9.690;2024-03-02T01:36:42;18.00;;;12.80;;
64633;SDS011;51043;52.406;9.690;2024-03-02T01:39:11;17.87;;;13.43;;
64633;SDS011;51043;52.406;9.690;2024-03-02T01:41:39;17.37;;;13.87;;
64633;SDS011;51043;52.406;9.690;2024-03-02T01:44:07;17.50;;;13.60;;
64633;SDS011;51043;52.406;9.690;2024-03-02T01:46:35;18.27;;;13.87;;
64633;SDS011;51043;52.406;9.690;2024-03-02T01:49:03;29.60;;;13.40;;
64633;SDS011;51043;52.406;9.690;2024-03-02T01:51:33;22.67;;;15.10;;
64633;SDS011;51043;52.406;9.690;2024-03-02T01:54:01;21.37;;;14.73;;
64633;SDS011;51043;52.406;9.690;2024-03-02T01:56:29;19.33;;;15.23;;
64633;SDS011;51043;52.406;9.690;2024-03-02T01:58:57;19.63;;;15.37;;
64633;SDS011;51043;52.406;9.690;2024-03-02T02:01:25;17.03;;;14.03;;
64633;SDS011;51043;52.406;9.690;2024-03-02T02:03:54;18.80;;;14.43;;
64633;SDS011;51043;52.406;9.690;2024-03-02T02:06:24;18.83;;;14.73;;
64633;SDS011;51043;52.406;9.690;2024-03-02T02:08:55;21.57;;;14.27;;
64633;SDS011;51043;52.406;9.690;2024-03-02T02:11:27;22.60;;;15.23;;
64633;SDS011;51043;52.406;9.690;2024-03-02T02:13:55;18.23;;;14.37;;
64633;SDS011;51043;52.406;9.690;2024-03-02T02:16:25;19.73;;;14.87;;
64633;SDS011;51043;52.406;9.690;2024-03-02T02:18:53;19.07;;;14.17;;
64633;SDS011;51043;52.406;9.690;2024-03-02T02:21:25;21.97;;;14.40;;
64633;SDS011;51043;52.406;9.690;2024-03-02T02:23:53;21.10;;;14.63;;
64633;SDS011;51043;52.406;9.690;2024-03-02T02:26:34;20.30;;;14.93;;
64633;SDS011;51043;52.406;9.690;2024-03-02T02:29:05;20.20;;;15.80;;
64633;SDS011;51043;52.406;9.690;2024-03-02T02:31:37;19.53;;;15.37;;
64633;SDS011;51043;52.406;9.690;2024-03-02T02:34:09;21.83;;;15.87;;
64633;SDS011;51043;52.406;9.690;2024-03-02T02:36:39;26.73;;;17.63;;
64633;SDS011;51043;52.406;9.690;2024-03-02T02:39:09;26.97;;;17.07;;
64633;SDS011;51043;52.406;9.690;2024-03-02T02:41:40;22.27;;;16.83;;
64633;SDS011;51043;52.406;9.690;2024-03-02T02:44:09;22.53;;;16.33;;
64633;SDS011;51043;52.406;9.690;2024-03-02T02:46:39;22.63;;;17.13;;
64633;SDS011;51043;52.406;9.690;2024-03-02T02:49:07;21.47;;;17.20;;
64633;SDS011;51043;52.406;9.690;2024-03-02T02:51:37;22.90;;;17.13;;
64633;SDS011;51043;52.406;9.690;2024-03-02T02:54:06;24.67;;;18.00;;
64633;SDS011;51043;52.406;9.690;2024-03-02T02:56:34;23.87;;;17.43;;
64633;SDS011;51043;52.406;9.690;2024-03-02T02:59:02;20.47;;;16.67;;
64633;SDS011;51043;52.406;9.690;2024-03-02T03:01:30;23.37;;;17.73;;
64633;SDS011;51043;52.406;9.690;2024-03-02T03:03:59;21.90;;;16.87;;
64633;SDS011;51043;52.406;9.690;2024-03-02T03:06:27;23.17;;;17.80;;
64633;SDS011;51043;52.406;9.690;2024-03-02T03:08:58;22.30;;;16.63;;
64633;SDS011;51043;52.406;9.690;2024-03-02T03:11:28;26.47;;;17.40;;
64633;SDS011;51043;52.406;9.690;2024-03-02T03:13:56;25.10;;;16.97;;
64633;SDS011;51043;52.406;9.690;2024-03-02T03:16:26;22.40;;;17.00;;
64633;SDS011;51043;52.406;9.690;2024-03-02T03:18:55;25.47;;;17.20;;
64633;SDS011;51043;52.406;9.690;2024-03-02T03:21:26;22.47;;;16.83;;
64633;SDS011;51043;52.406;9.690;2024-03-02T03:23:54;24.63;;;17.17;;
64633;SDS011;51043;52.406;9.690;2024-03-02T03:26:25;22.47;;;17.00;;
64633;SDS011;51043;52.406;9.690;2024-03-02T03:28:58;23.00;;;17.20;;
64633;SDS011;51043;52.406;9.690;2024-03-02T03:31:30;21.73;;;17.10;;
64633;SDS011;51043;52.406;9.690;2024-03-02T03:33:58;22.57;;;17.23;;
64633;SDS011;51043;52.406;9.690;2024-03-02T03:36:26;22.90;;;16.10;;
64633;SDS011;51043;52.406;9.690;2024-03-02T03:38:54;21.23;;;16.63;;
64633;SDS011;51043;52.406;9.690;2024-03-02T03:41:24;21.27;;;16.17;;
64633;SDS011;51043;52.406;9.690;2024-03-02T03:43:53;23.27;;;16.47;;
64633;SDS011;51043;52.406;9.690;2024-03-02T03:46:22;23.60;;;16.37;;
64633;SDS011;51043;52.406;9.690;2024-03-02T03:48:50;24.30;;;16.70;;
64633;SDS011;51043;52.406;9.690;2024-03-02T03:51:18;23.77;;;16.30;;
64633;SDS011;51043;52.406;9.690;2024-03-02T03:53:46;23.23;;;16.50;;
64633;SDS011;51043;52.406;9.690;2024-03-02T03:56:16;24.43;;;16.43;;
64633;SDS011;51043;52.406;9.690;2024-03-02T03:58:44;20.17;;;14.93;;
64633;SDS011;51043;52.406;9.690;2024-03-02T04:01:15;22.83;;;15.20;;
64633;SDS011;51043;52.406;9.690;2024-03-02T04:03:43;23.30;;;16.27;;
64633;SDS011;51043;52.406;9.690;2024-03-02T04:06:12;23.23;;;16.20;;
64633;SDS011;51043;52.406;9.690;2024-03-02T04:08:43;25.50;;;16.67;;
64633;SDS011;51043;52.406;9.690;2024-03-02T04:11:11;20.73;;;15.63;;
64633;SDS011;51043;52.406;9.690;2024-03-02T04:13:39;23.37;;;15.43;;
64633;SDS011;51043;52.406;9.690;2024-03-02T04:16:07;26.23;;;15.27;;
64633;SDS011;51043;52.406;9.690;2024-03-02T04:18:39;23.20;;;15.63;;
64633;SDS011;51043;52.406;9.690;2024-03-02T04:21:07;19.13;;;14.37;;
64633;SDS011;51043;52.406;9.690;2024-03-02T04:23:35;22.07;;;15.47;;
64633;SDS011;51043;52.406;9.690;2024-03-02T04:26:04;22.73;;;15.97;;
64633;SDS011;51043;52.406;9.690;2024-03-02T04:28:32;20.10;;;15.37;;
64633;SDS011;51043;52.406;9.690;2024-03-02T04:31:00;19.90;;;14.73;;
64633;SDS011;51043;52.406;9.690;2024-03-02T04:33:30;20.73;;;15.27;;
64633;SDS011;51043;52.406;9.690;2024-03-02T04:36:00;23.13;;;15.60;;
64633;SDS011;51043;52.406;9.690;2024-03-02T04:38:29;20.53;;;15.67;;
64633;SDS011;51043;52.406;9.690;2024-03-02T04:40:59;25.17;;;14.97;;
64633;SDS011;51043;52.406;9.690;2024-03-02T04:43:27;22.60;;;15.70;;
64633;SDS011;51043;52.406;9.690;2024-03-02T04:45:55;20.70;;;15.27;;
64633;SDS011;51043;52.406;9.690;2024-03-02T04:48:24;20.50;;;15.93;;
64633;SDS011;51043;52.406;9.690;2024-03-02T04:50:56;23.17;;;14.87;;
64633;SDS011;51043;52.406;9.690;2024-03-02T04:53:26;24.17;;;15.70;;
64633;SDS011;51043;52.406;9.690;2024-03-02T04:55:54;24.20;;;16.07;;
64633;SDS011;51043;52.406;9.690;2024-03-02T04:58:53;21.43;;;15.90;;
64633;SDS011;51043;52.406;9.690;2024-03-02T05:01:22;20.87;;;15.37;;
64633;SDS011;51043;52.406;9.690;2024-03-02T05:03:50;20.00;;;14.50;;
64633;SDS011;51043;52.406;9.690;2024-03-02T05:06:18;23.87;;;15.70;;
64633;SDS011;51043;52.406;9.690;2024-03-02T05:08:47;25.27;;;16.20;;
64633;SDS011;51043;52.406;9.690;2024-03-02T05:11:19;24.20;;;15.70;;
64633;SDS011;51043;52.406;9.690;2024-03-02T05:14:05;25.87;;;16.93;;
64633;SDS011;51043;52.406;9.690;2024-03-02T05:16:36;23.37;;;16.37;;
64633;SDS011;51043;52.406;9.690;2024-03-02T05:19:06;22.30;;;16.50;;
64633;SDS011;51043;52.406;9.690;2024-03-02T05:21:35;23.53;;;16.13;;
64633;SDS011;51043;52.406;9.690;2024-03-02T05:24:05;27.70;;;17.97;;
64633;SDS011;51043;52.406;9.690;2024-03-02T05:26:33;22.93;;;16.87;;
64633;SDS011;51043;52.406;9.690;2024-03-02T05:29:02;25.10;;;17.60;;
64633;SDS011;51043;52.406;9.690;2024-03-02T05:31:30;25.37;;;17.23;;
64633;SDS011;51043;52.406;9.690;2024-03-02T05:33:58;22.53;;;16.80;;
64633;SDS011;51043;52.406;9.690;2024-03-02T05:36:26;26.67;;;18.10;;
64633;SDS011;51043;52.406;9.690;2024-03-02T05:38:54;26.43;;;17.53;;
64633;SDS011;51043;52.406;9.690;2024-03-02T05:41:27;24.10;;;17.60;;
64633;SDS011;51043;52.406;9.690;2024-03-02T05:43:57;33.77;;;17.93;;
64633;SDS011;51043;52.406;9.690;2024-03-02T05:46:27;28.57;;;18.27;;
64633;SDS011;51043;52.406;9.690;2024-03-02T05:48:57;26.93;;;17.97;;
64633;SDS011;51043;52.406;9.690;2024-03-02T05:51:30;23.83;;;17.93;;
64633;SDS011;51043;52.406;9.690;2024-03-02T05:53:59;26.57;;;18.73;;
64633;SDS011;51043;52.406;9.690;2024-03-02T05:56:29;26.53;;;18.27;;
64633;SDS011;51043;52.406;9.690;2024-03-02T05:58:57;28.70;;;19.70;;
64633;SDS011;51043;52.406;9.690;2024-03-02T06:01:39;26.37;;;19.20;;
64633;SDS011;51043;52.406;9.690;2024-03-02T06:04:09;30.43;;;20.43;;
64633;SDS011;51043;52.406;9.690;2024-03-02T06:06:42;26.33;;;19.53;;
64633;SDS011;51043;52.406;9.690;2024-03-02T06:09:10;29.10;;;20.13;;
64633;SDS011;51043;52.406;9.690;2024-03-02T06:11:41;27.90;;;19.53;;
64633;SDS011;51043;52.406;9.690;2024-03-02T06:14:09;32.20;;;21.10;;
64633;SDS011;51043;52.406;9.690;2024-03-02T06:16:37;28.13;;;20.10;;
64633;SDS011;51043;52.406;9.690;2024-03-02T06:19:05;29.80;;;20.97;;
64633;SDS011;51043;52.406;9.690;2024-03-02T06:21:33;28.80;;;20.17;;
64633;SDS011;51043;52.406;9.690;2024-03-02T06:24:01;24.67;;;20.23;;
64633;SDS011;51043;52.406;9.690;2024-03-02T06:26:30;28.07;;;20.17;;
64633;SDS011;51043;52.406;9.690;2024-03-02T06:29:00;26.73;;;20.07;;
64633;SDS011;51043;52.406;9.690;2024-03-02T06:31:29;26.77;;;19.87;;
64633;SDS011;51043;52.406;9.690;2024-03-02T06:33:57;26.93;;;19.53;;
64633;SDS011;51043;52.406;9.690;2024-03-02T06:36:25;26.53;;;19.83;;
64633;SDS011;51043;52.406;9.690;2024-03-02T06:38:54;28.80;;;20.57;;
64633;SDS011;51043;52.406;9.690;2024-03-02T06:41:24;27.30;;;19.27;;
64633;SDS011;51043;52.406;9.690;2024-03-02T06:43:56;26.33;;;20.10;;
64633;SDS011;51043;52.406;9.690;2024-03-02T06:46:27;27.47;;;20.30;;
64633;SDS011;51043;52.406;9.690;2024-03-02T06:48:55;25.83;;;18.87;;
64633;SDS011;51043;52.406;9.690;2024-03-02T06:51:26;27.27;;;18.83;;
64633;SDS011;51043;52.406;9.690;2024-03-02T06:53:54;28.00;;;19.90;;
64633;SDS011;51043;52.406;9.690;2024-03-02T06:56:23;27.23;;;19.40;;
64633;SDS011;51043;52.406;9.690;2024-03-02T06:58:51;25.87;;;19.80;;
64633;SDS011;51043;52.406;9.690;2024-03-02T07:01:19;25.93;;;19.57;;
64633;SDS011;51043;52.406;9.690;2024-03-02T07:03:50;28.47;;;19.57;;
64633;SDS011;51043;52.406;9.690;2024-03-02T07:06:20;29.77;;;19.20;;
64633;SDS011;51043;52.406;9.690;2024-03-02T07:08:48;26.53;;;18.07;;
64633;SDS011;51043;52.406;9.690;2024-03-02T07:11:16;25.00;;;17.83;;
64633;SDS011;51043;52.406;9.690;2024-03-02T07:13:44;22.63;;;17.97;;
64633;SDS011;51043;52.406;9.690;2024-03-02T07:16:12;24.20;;;18.10;;
64633;SDS011;51043;52.406;9.690;2024-03-02T07:18:55;21.37;;;16.37;;
64633;SDS011;51043;52.406;9.690;2024-03-02T07:21:25;23.43;;;16.70;;
64633;SDS011;51043;52.406;9.690;2024-03-02T07:23:53;20.47;;;16.60;;
64633;SDS011;51043;52.406;9.690;2024-03-02T07:26:21;23.77;;;16.00;;
64633;SDS011;51043;52.406;9.690;2024-03-02T07:28:52;21.73;;;16.87;;
64633;SDS011;51043;52.406;9.690;2024-03-02T07:31:20;22.90;;;15.27;;
64633;SDS011;51043;52.406;9.690;2024-03-02T07:33:49;22.77;;;15.17;;
64633;SDS011;51043;52.406;9.690;2024-03-02T07:36:18;20.07;;;16.03;;
64633;SDS011;51043;52.406;9.690;2024-03-02T07:38:46;20.23;;;16.57;;
64633;SDS011;51043;52.406;9.690;2024-03-02T07:41:17;22.60;;;16.70;;
64633;SDS011;51043;52.406;9.690;2024-03-02T07:43:45;28.07;;;17.80;;
64633;SDS011;51043;52.406;9.690;2024-03-02T07:46:13;22.93;;;15.93;;
64633;SDS011;51043;52.406;9.690;2024-03-02T07:48:42;21.37;;;16.03;;
64633;SDS011;51043;52.406;9.690;2024-03-02T07:51:10;19.93;;;15.80;;
64633;SDS011;51043;52.406;9.690;2024-03-02T07:53:39;22.77;;;15.80;;
64633;SDS011;51043;52.406;9.690;2024-03-02T07:56:07;19.60;;;15.23;;
64633;SDS011;51043;52.406;9.690;2024-03-02T07:58:36;18.60;;;14.90;;
64633;SDS011;51043;52.406;9.690;2024-03-02T08:01:04;21.63;;;14.80;;
64633;SDS011;51043;52.406;9.690;2024-03-02T08:03:32;19.13;;;14.07;;
64633;SDS011;51043;52.406;9.690;2024-03-02T08:06:01;19.60;;;14.33;;
64633;SDS011;51043;52.406;9.690;2024-03-02T08:08:32;17.90;;;13.87;;
64633;SDS011;51043;52.406;9.690;2024-03-02T08:11:02;18.73;;;14.97;;
64633;SDS011;51043;52.406;9.690;2024-03-02T08:13:31;19.55;;;14.10;;
64633;SDS011;51043;52.406;9.690;2024-03-02T08:15:59;18.67;;;14.73;;
64633;SDS011;51043;52.406;9.690;2024-03-02T08:18:30;17.48;;;13.95;;
64633;SDS011;51043;52.406;9.690;2024-03-02T08:20:58;20.27;;;14.23;;
64633;SDS011;51043;52.406;9.690;2024-03-02T08:23:27;15.40;;;12.63;;
64633;SDS011;51043;52.406;9.690;2024-03-02T08:25:56;17.75;;;14.18;;
64633;SDS011;51043;52.406;9.690;2024-03-02T08:28:26;18.13;;;13.88;;
64633;SDS011;51043;52.406;9.690;2024-03-02T08:30:57;17.88;;;14.18;;
64633;SDS011;51043;52.406;9.690;2024-03-02T08:33:27;16.70;;;13.55;;
64633;SDS011;51043;52.406;9.690;2024-03-02T08:35:57;16.83;;;13.50;;
64633;SDS011;51043;52.406;9.690;2024-03-02T08:38:26;17.65;;;13.65;;
64633;SDS011;51043;52.406;9.690;2024-03-02T08:40:58;15.82;;;13.00;;
64633;SDS011;51043;52.406;9.690;2024-03-02T08:43:31;18.73;;;13.68;;
64633;SDS011;51043;52.406;9.690;2024-03-02T08:45:59;17.02;;;14.07;;
64633;SDS011;51043;52.406;9.690;2024-03-02T08:48:29;17.20;;;13.43;;
64633;SDS011;51043;52.406;9.690;2024-03-02T08:50:57;19.70;;;14.70;;
64633;SDS011;51043;52.406;9.690;2024-03-02T08:53:25;17.57;;;13.83;;
64633;SDS011;51043;52.406;9.690;2024-03-02T08:55:54;19.57;;;14.03;;
64633;SDS011;51043;52.406;9.690;2024-03-02T08:58:23;19.70;;;13.45;;
64633;SDS011;51043;52.406;9.690;2024-03-02T09:00:53;19.40;;;13.57;;
64633;SDS011;51043;52.406;9.690;2024-03-02T09:03:21;20.13;;;13.60;;
64633;SDS011;51043;52.406;9.690;2024-03-02T09:05:51;15.52;;;13.48;;
64633;SDS011;51043;52.406;9.690;2024-03-02T09:08:19;20.77;;;14.27;;
64633;SDS011;51043;52.406;9.690;2024-03-02T09:10:49;17.93;;;13.17;;
64633;SDS011;51043;52.406;9.690;2024-03-02T09:13:17;21.47;;;13.47;;
64633;SDS011;51043;52.406;9.690;2024-03-02T09:15:47;16.43;;;12.37;;
64633;SDS011;51043;52.406;9.690;2024-03-02T09:18:20;15.93;;;12.80;;
64633;SDS011;51043;52.406;9.690;2024-03-02T09:20:49;18.00;;;13.37;;
64633;SDS011;51043;52.406;9.690;2024-03-02T09:23:17;18.13;;;13.77;;
64633;SDS011;51043;52.406;9.690;2024-03-02T09:25:45;17.30;;;14.00;;
64633;SDS011;51043;52.406;9.690;2024-03-02T09:28:15;19.70;;;14.07;;
64633;SDS011;51043;52.406;9.690;2024-03-02T09:30:43;15.50;;;12.40;;
64633;SDS011;51043;52.406;9.690;2024-03-02T09:33:11;17.20;;;12.13;;
64633;SDS011;51043;52.406;9.690;2024-03-02T09:35:43;15.53;;;12.47;;
64633;SDS011;51043;52.406;9.690;2024-03-02T09:38:11;19.97;;;13.27;;
64633;SDS011;51043;52.406;9.690;2024-03-02T09:40:40;17.63;;;13.10;;
64633;SDS011;51043;52.406;9.690;2024-03-02T09:43:09;16.30;;;12.67;;
64633;SDS011;51043;52.406;9.690;2024-03-02T09:45:38;16.47;;;12.33;;
64633;SDS011;51043;52.406;9.690;2024-03-02T09:48:06;19.87;;;12.67;;
64633;SDS011;51043;52.406;9.690;2024-03-02T09:50:36;16.50;;;12.90;;
64633;SDS011;51043;52.406;9.690;2024-03-02T09:53:06;18.00;;;13.80;;
64633;SDS011;51043;52.406;9.690;2024-03-02T09:55:36;15.70;;;12.30;;
64633;SDS011;51043;52.406;9.690;2024-03-02T09:58:05;16.67;;;12.53;;
64633;SDS011;51043;52.406;9.690;2024-03-02T10:00:36;18.80;;;12.47;;
64633;SDS011;51043;52.406;9.690;2024-03-02T10:03:05;15.93;;;12.67;;
64633;SDS011;51043;52.406;9.690;2024-03-02T10:05:39;15.93;;;12.27;;
64633;SDS011;51043;52.406;9.690;2024-03-02T10:08:08;16.90;;;13.20;;
64633;SDS011;51043;52.406;9.690;2024-03-02T10:10:37;16.10;;;12.30;;
64633;SDS011;51043;52.406;9.690;2024-03-02T10:13:09;16.33;;;11.90;;
64633;SDS011;51043;52.406;9.690;2024-03-02T10:15:39;16.77;;;11.80;;
64633;SDS011;51043;52.406;9.690;2024-03-02T10:18:09;15.73;;;12.27;;
64633;SDS011;51043;52.406;9.690;2024-03-02T10:20:39;15.70;;;12.20;;
64633;SDS011;51043;52.406;9.690;2024-03-02T10:23:13;14.97;;;11.83;;
64633;SDS011;51043;52.406;9.690;2024-03-02T10:25:43;17.13;;;13.27;;
64633;SDS011;51043;52.406;9.690;2024-03-02T10:28:12;15.77;;;11.63;;
64633;SDS011;51043;52.406;9.690;2024-03-02T10:30:40;18.20;;;12.63;;
64633;SDS011;51043;52.406;9.690;2024-03-02T10:33:11;15.30;;;11.88;;
64633;SDS011;51043;52.406;9.690;2024-03-02T10:35:40;14.07;;;11.50;;
64633;SDS011;51043;52.406;9.690;2024-03-02T10:38:09;15.10;;;11.95;;
64633;SDS011;51043;52.406;9.690;2024-03-02T10:40:40;15.20;;;12.02;;
64633;SDS011;51043;52.406;9.690;2024-03-02T10:43:10;14.73;;;11.60;;
64633;SDS011;51043;52.406;9.690;2024-03-02T10:45:39;14.40;;;11.63;;
64633;SDS011;51043;52.406;9.690;2024-03-02T10:48:07;12.93;;;11.15;;
64633;SDS011;51043;52.406;9.690;2024-03-02T10:50:38;12.52;;;10.68;;
64633;SDS011;51043;52.406;9.690;2024-03-02T10:53:07;13.63;;;11.18;;
64633;SDS011;51043;52.406;9.690;2024-03-02T10:55:36;15.30;;;10.98;;
64633;SDS011;51043;52.406;9.690;2024-03-02T10:58:05;13.27;;;10.45;;
64633;SDS011;51043;52.406;9.690;2024-03-02T11:00:36;12.70;;;10.85;;
64633;SDS011;51043;52.406;9.690;2024-03-02T11:03:06;13.82;;;10.98;;
64633;SDS011;51043;52.406;9.690;2024-03-02T11:05:36;14.75;;;11.15;;
64633;SDS011;51043;52.406;9.690;2024-03-02T11:08:06;13.27;;;10.15;;
64633;SDS011;51043;52.406;9.690;2024-03-02T11:10:37;13.07;;;9.70;;
64633;SDS011;51043;52.406;9.690;2024-03-02T11:13:11;11.45;;;9.43;;
64633;SDS011;51043;52.406;9.690;2024-03-02T11:15:40;13.40;;;9.95;;
64633;SDS011;51043;52.406;9.690;2024-03-02T11:18:09;13.38;;;9.40;;
64633;SDS011;51043;52.406;9.690;2024-03-02T11:20:39;12.57;;;8.93;;
64633;SDS011;51043;52.406;9.690;2024-03-02T11:23:08;12.15;;;10.07;;
64633;SDS011;51043;52.406;9.690;2024-03-02T11:25:38;14.65;;;9.40;;
64633;SDS011;51043;52.406;9.690;2024-03-02T11:28:06;12.70;;;9.73;;
64633;SDS011;51043;52.406;9.690;2024-03-02T11:30:54;11.68;;;9.05;;
64633;SDS011;51043;52.406;9.690;2024-03-02T11:33:24;13.95;;;9.80;;
64633;SDS011;51043;52.406;9.690;2024-03-02T11:35:57;11.95;;;10.02;;
64633;SDS011;51043;52.406;9.690;2024-03-02T11:38:30;11.43;;;9.57;;
64633;SDS011;51043;52.406;9.690;2024-03-02T11:41:05;11.73;;;9.13;;
64633;SDS011;51043;52.406;9.690;2024-03-02T11:43:36;15.97;;;9.63;;
64633;SDS011;51043;52.406;9.690;2024-03-02T11:46:06;12.20;;;9.23;;
64633;SDS011;51043;52.406;9.690;2024-03-02T11:48:35;13.13;;;9.47;;
64633;SDS011;51043;52.406;9.690;2024-03-02T11:51:04;10.73;;;8.90;;
64633;SDS011;51043;52.406;9.690;2024-03-02T11:53:34;12.67;;;8.90;;
64633;SDS011;51043;52.406;9.690;2024-03-02T11:56:08;11.82;;;9.10;;
64633;SDS011;51043;52.406;9.690;2024-03-02T11:58:39;10.20;;;8.40;;
64633;SDS011;51043;52.406;9.690;2024-03-02T12:01:08;10.55;;;8.43;;
64633;SDS011;51043;52.406;9.690;2024-03-02T12:03:38;13.70;;;8.73;;
64633;SDS011;51043;52.406;9.690;2024-03-02T12:06:06;9.38;;;7.60;;
64633;SDS011;51043;52.406;9.690;2024-03-02T12:08:35;10.68;;;8.55;;
64633;SDS011;51043;52.406;9.690;2024-03-02T12:11:04;9.80;;;7.95;;
64633;SDS011;51043;52.406;9.690;2024-03-02T12:13:36;10.07;;;7.20;;
64633;SDS011;51043;52.406;9.690;2024-03-02T12:16:05;10.05;;;7.18;;
64633;SDS011;51043;52.406;9.690;2024-03-02T12:18:34;10.70;;;7.45;;
64633;SDS011;51043;52.406;9.690;2024-03-02T12:21:03;10.15;;;7.78;;
64633;SDS011;51043;52.406;9.690;2024-03-02T12:23:36;9.63;;;7.45;;
64633;SDS011;51043;52.406;9.690;2024-03-02T12:26:06;9.88;;;7.20;;
64633;SDS011;51043;52.406;9.690;2024-03-02T12:28:38;8.63;;;7.10;;
64633;SDS011;51043;52.406;9.690;2024-03-02T12:31:07;10.25;;;7.22;;
64633;SDS011;51043;52.406;9.690;2024-03-02T12:33:36;8.05;;;6.90;;
64633;SDS011;51043;52.406;9.690;2024-03-02T12:36:07;8.55;;;6.28;;
64633;SDS011;51043;52.406;9.690;2024-03-02T12:38:42;7.78;;;6.18;;
64633;SDS011;51043;52.406;9.690;2024-03-02T12:41:14;7.25;;;5.88;;
64633;SDS011;51043;52.406;9.690;2024-03-02T12:43:44;8.35;;;6.20;;
64633;SDS011;51043;52.406;9.690;2024-03-02T12:46:18;7.72;;;6.05;;
64633;SDS011;51043;52.406;9.690;2024-03-02T12:48:47;9.43;;;5.60;;
64633;SDS011;51043;52.406;9.690;2024-03-02T12:51:16;8.77;;;5.95;;
64633;SDS011;51043;52.406;9.690;2024-03-02T12:53:52;7.00;;;5.38;;
64633;SDS011;51043;52.406;9.690;2024-03-02T12:56:21;7.90;;;5.40;;
64633;SDS011;51043;52.406;9.690;2024-03-02T12:58:54;7.80;;;5.22;;
64633;SDS011;51043;52.406;9.690;2024-03-02T13:01:22;6.50;;;4.40;;
64633;SDS011;51043;52.406;9.690;2024-03-02T13:03:51;6.20;;;4.40;;
64633;SDS011;51043;52.406;9.690;2024-03-02T13:06:21;7.78;;;4.55;;
64633;SDS011;51043;52.406;9.690;2024-03-02T13:08:50;8.02;;;4.57;;
64633;SDS011;51043;52.406;9.690;2024-03-02T13:11:18;6.25;;;3.67;;
64633;SDS011;51043;52.406;9.690;2024-03-02T13:13:46;5.10;;;4.03;;
64633;SDS011;51043;52.406;9.690;2024-03-02T13:16:16;7.90;;;4.20;;
64633;SDS011;51043;52.406;9.690;2024-03-02T13:18:49;6.15;;;3.50;;
64633;SDS011;51043;52.406;9.690;2024-03-02T13:21:17;4.50;;;3.73;;
64633;SDS011;51043;52.406;9.690;2024-03-02T13:23:46;5.30;;;3.60;;
64633;SDS011;51043;52.406;9.690;2024-03-02T13:26:14;6.23;;;4.13;;
64633;SDS011;51043;52.406;9.690;2024-03-02T13:28:43;5.43;;;4.13;;
64633;SDS011;51043;52.406;9.690;2024-03-02T13:31:11;6.50;;;4.60;;
64633;SDS011;51043;52.406;9.690;2024-03-02T13:33:41;6.70;;;3.90;;
64633;SDS011;51043;52.406;9.690;2024-03-02T13:36:10;6.47;;;4.20;;
64633;SDS011;51043;52.406;9.690;2024-03-02T13:38:39;5.40;;;4.23;;
64633;SDS011;51043;52.406;9.690;2024-03-02T13:41:07;5.73;;;3.80;;
64633;SDS011;51043;52.406;9.690;2024-03-02T13:43:35;7.40;;;4.73;;
64633;SDS011;51043;52.406;9.690;2024-03-02T13:46:05;5.25;;;4.15;;
64633;SDS011;51043;52.406;9.690;2024-03-02T13:48:35;5.43;;;4.10;;
64633;SDS011;51043;52.406;9.690;2024-03-02T13:51:04;7.13;;;4.40;;
64633;SDS011;51043;52.406;9.690;2024-03-02T13:53:35;5.53;;;3.90;;
64633;SDS011;51043;52.406;9.690;2024-03-02T13:56:06;4.67;;;4.07;;
64633;SDS011;51043;52.406;9.690;2024-03-02T13:58:37;6.37;;;4.53;;
64633;SDS011;51043;52.406;9.690;2024-03-02T14:01:07;7.80;;;4.50;;
64633;SDS011;51043;52.406;9.690;2024-03-02T14:03:38;6.00;;;3.53;;
64633;SDS011;51043;52.406;9.690;2024-03-02T14:06:08;4.43;;;3.87;;
64633;SDS011;51043;52.406;9.690;2024-03-02T14:08:36;4.05;;;3.42;;
64633;SDS011;51043;52.406;9.690;2024-03-02T14:11:04;6.10;;;4.00;;
64633;SDS011;51043;52.406;9.690;2024-03-02T14:13:33;5.87;;;3.87;;
64633;SDS011;51043;52.406;9.690;2024-03-02T14:16:03;5.53;;;4.20;;
64633;SDS011;51043;52.406;9.690;2024-03-02T14:18:32;5.20;;;3.90;;
64633;SDS011;51043;52.406;9.690;2024-03-02T14:21:00;6.33;;;3.97;;
64633;SDS011;51043;52.406;9.690;2024-03-02T14:23:31;5.20;;;4.00;;
64633;SDS011;51043;52.406;9.690;2024-03-02T14:26:00;5.47;;;3.60;;
64633;SDS011;51043;52.406;9.690;2024-03-02T14:28:28;6.20;;;4.00;;
64633;SDS011;51043;52.406;9.690;2024-03-02T14:31:01;5.47;;;4.00;;
64633;SDS011;51043;52.406;9.690;2024-03-02T14:33:29;5.47;;;3.63;;
64633;SDS011;51043;52.406;9.690;2024-03-02T14:35:58;5.22;;;4.15;;
64633;SDS011;51043;52.406;9.690;2024-03-02T14:38:26;5.90;;;3.47;;
64633;SDS011;51043;52.406;9.690;2024-03-02T14:40:57;7.47;;;4.03;;